Mifflintown, Pennsylvania
Current Conditions -  °F | °C
As of 4:35 AM on Monday 24 Nov 2014 (Local Time) from KUNV Reporting Station
Overcast Overcast  
Wind Chill: 53°   Ceiling: 800
Heat Index: 53°   Visibility: 10mi
Dew Point: 51°   Wind: 8mph
Humidity: 95%   Direction: 200°SSW
Pressure: 29.54"   Gusts: NA
Location:  40.57°N, 77.4°W
Report Text: KUNV 240935Z AUTO 20007KT 10SM OVC008 12/11 A2954 RMK AO2 T01150107
Loading
Personal Weather Stations






























Interactive Weather Map New forecast layout! Learn more

10-Day Weather Forecast

Advertisements
Track Severe Weather on mobile